createdAt,value
2019-01-22T00:00:05.565Z,0
2019-01-22T00:01:15.586Z,0
2019-01-22T00:02:25.347Z,0
2019-01-22T00:03:35.353Z,0
2019-01-22T00:04:45.438Z,0
2019-01-22T00:05:55.456Z,0
2019-01-22T00:07:05.508Z,0
2019-01-22T00:08:15.528Z,0
2019-01-22T00:09:25.290Z,0
2019-01-22T00:10:35.404Z,0
2019-01-22T00:11:45.430Z,0
2019-01-22T00:12:56.072Z,0
2019-01-22T00:14:07.014Z,0
2019-01-22T00:15:18.123Z,0
2019-01-22T00:16:28.576Z,0
2019-01-22T00:17:38.757Z,0
2019-01-22T00:18:48.776Z,0
2019-01-22T00:19:58.811Z,0
2019-01-22T00:21:08.846Z,0
2019-01-22T00:22:18.926Z,0
2019-01-22T00:23:28.954Z,0
2019-01-22T00:24:38.983Z,0
2019-01-22T00:25:49.002Z,0
2019-01-22T00:26:59.038Z,0
2019-01-22T00:28:08.816Z,0
2019-01-22T00:29:18.839Z,0
2019-01-22T00:30:28.869Z,0
2019-01-22T00:31:38.898Z,0
2019-01-22T00:32:48.928Z,0
2019-01-22T00:33:59.055Z,0
2019-01-22T00:35:09.069Z,0
2019-01-22T00:36:19.083Z,0
2019-01-22T00:37:29.100Z,0
2019-01-22T00:38:39.112Z,0
2019-01-22T00:39:49.237Z,0
2019-01-22T00:40:59.283Z,0
2019-01-22T00:42:09.301Z,0
2019-01-22T00:43:19.316Z,0
2019-01-22T00:44:29.337Z,0
2019-01-22T00:45:39.419Z,0
2019-01-22T00:46:49.439Z,0
2019-01-22T00:47:59.463Z,0
2019-01-22T00:49:09.466Z,0
2019-01-22T00:50:19.498Z,0
2019-01-22T00:51:29.088Z,0
2019-01-22T00:52:39.098Z,0
2019-01-22T00:53:49.119Z,0
2019-01-22T00:54:58.898Z,0
2019-01-22T00:56:09.025Z,0
2019-01-22T00:57:19.725Z,0
2019-01-22T00:58:30.502Z,0
2019-01-22T00:59:41.308Z,0
2019-01-22T01:00:51.804Z,0
2019-01-22T01:02:02.105Z,0
2019-01-22T01:03:12.161Z,0
2019-01-22T01:04:22.190Z,0
2019-01-22T01:05:32.213Z,0
2019-01-22T01:06:42.227Z,0
2019-01-22T01:07:52.240Z,0
2019-01-22T01:09:02.364Z,0
2019-01-22T01:10:12.402Z,0
2019-01-22T01:11:22.438Z,0
2019-01-22T01:12:32.490Z,0
2019-01-22T01:13:42.554Z,0
2019-01-22T01:14:52.678Z,0
2019-01-22T01:16:02.696Z,0
2019-01-22T01:17:12.727Z,0
2019-01-22T01:18:22.750Z,0
2019-01-22T01:19:32.774Z,0
2019-01-22T01:20:42.892Z,0
2019-01-22T01:21:52.902Z,0
2019-01-22T01:23:02.916Z,0
2019-01-22T01:24:12.926Z,0
2019-01-22T01:25:22.954Z,0
2019-01-22T01:26:33.083Z,0
2019-01-22T01:27:43.098Z,0
2019-01-22T01:28:53.122Z,0
2019-01-22T01:30:03.163Z,0
2019-01-22T01:31:13.190Z,0
2019-01-22T01:32:23.210Z,0
2019-01-22T01:33:33.217Z,0
2019-01-22T01:34:43.231Z,0
2019-01-22T01:35:53.244Z,0
2019-01-22T01:37:03.246Z,0
2019-01-22T01:38:13.324Z,0
2019-01-22T01:39:23.335Z,0
2019-01-22T01:40:33.358Z,0
2019-01-22T01:41:43.367Z,0
2019-01-22T01:42:53.406Z,0
2019-01-22T01:44:03.545Z,0
2019-01-22T01:45:14.226Z,0
2019-01-22T01:46:25.161Z,0
2019-01-22T01:47:36.097Z,0
2019-01-22T01:48:46.676Z,0
2019-01-22T01:49:56.854Z,0
2019-01-22T01:51:06.867Z,0
2019-01-22T01:52:16.881Z,0
2019-01-22T01:53:33.165Z,0
2019-01-22T01:54:43.168Z,0
2019-01-22T01:55:53.291Z,0
2019-01-22T01:57:03.315Z,0
2019-01-22T01:58:13.358Z,0
2019-01-22T01:59:23.375Z,0
2019-01-22T02:00:33.409Z,0
2019-01-22T02:01:43.430Z,0
2019-01-22T02:02:53.458Z,0
2019-01-22T02:04:03.242Z,0
2019-01-22T02:05:13.277Z,0
2019-01-22T02:06:23.300Z,0
2019-01-22T02:07:33.413Z,0
2019-01-22T02:08:43.456Z,0
2019-01-22T02:09:53.483Z,0
2019-01-22T02:11:03.503Z,0
2019-01-22T02:12:13.521Z,0
2019-01-22T02:13:23.610Z,0
2019-01-22T02:14:33.644Z,0
2019-01-22T02:15:43.696Z,0
2019-01-22T02:16:53.718Z,0
2019-01-22T02:18:03.744Z,0
2019-01-22T02:19:13.794Z,0
2019-01-22T02:20:23.815Z,0
2019-01-22T02:21:33.844Z,0
2019-01-22T02:22:43.857Z,0
2019-01-22T02:23:53.878Z,0
2019-01-22T02:25:03.997Z,0
2019-01-22T02:26:14.459Z,0
2019-01-22T02:27:25.290Z,0
2019-01-22T02:28:35.931Z,0
2019-01-22T02:29:46.188Z,0
2019-01-22T02:30:56.561Z,0
2019-01-22T02:32:06.587Z,0
2019-01-22T02:33:16.373Z,0
2019-01-22T02:34:26.374Z,0
2019-01-22T02:35:36.388Z,0
2019-01-22T02:36:46.524Z,0
2019-01-22T02:37:56.547Z,0
2019-01-22T02:39:06.557Z,0
2019-01-22T02:40:16.591Z,0
2019-01-22T02:41:26.615Z,0
2019-01-22T02:42:36.715Z,0
2019-01-22T02:43:46.517Z,0
2019-01-22T02:44:56.535Z,0
2019-01-22T02:46:06.540Z,0
2019-01-22T02:47:16.557Z,0
2019-01-22T02:48:26.705Z,0
2019-01-22T02:49:36.761Z,0
2019-01-22T02:50:46.583Z,0
2019-01-22T02:51:56.628Z,0
2019-01-22T02:53:06.663Z,0
2019-01-22T02:54:16.535Z,0
2019-01-22T02:55:26.543Z,0
2019-01-22T02:56:36.569Z,0
2019-01-22T02:57:46.582Z,0
2019-01-22T02:58:56.593Z,0
2019-01-22T03:00:06.674Z,0
2019-01-22T03:01:16.688Z,0
2019-01-22T03:02:26.716Z,0
2019-01-22T03:03:36.748Z,0
2019-01-22T03:04:46.516Z,0
2019-01-22T03:05:56.591Z,0
2019-01-22T03:07:06.353Z,0
2019-01-22T03:08:16.996Z,0
2019-01-22T03:09:27.949Z,0
2019-01-22T03:10:38.812Z,0
2019-01-22T03:11:49.439Z,0
2019-01-22T03:12:59.604Z,0
2019-01-22T03:14:09.630Z,0
2019-01-22T03:15:19.660Z,0
2019-01-22T03:16:29.453Z,0
2019-01-22T03:17:39.722Z,0
2019-01-22T03:18:49.757Z,0
2019-01-22T03:19:59.803Z,0
2019-01-22T03:21:09.840Z,0
2019-01-22T03:22:19.875Z,0
2019-01-22T03:23:29.989Z,0
2019-01-22T03:24:40.007Z,0
2019-01-22T03:25:50.042Z,0
2019-01-22T03:27:00.069Z,0
2019-01-22T03:28:10.113Z,0
2019-01-22T03:29:20.123Z,0
2019-01-22T03:30:30.179Z,0
2019-01-22T03:31:40.220Z,0
2019-01-22T03:32:50.262Z,0
2019-01-22T03:34:00.291Z,0
2019-01-22T03:35:10.339Z,0
2019-01-22T03:36:20.338Z,0
2019-01-22T03:37:30.350Z,0
2019-01-22T03:38:40.361Z,0
2019-01-22T03:39:50.359Z,0
2019-01-22T03:41:00.209Z,0
2019-01-22T03:42:10.225Z,0
2019-01-22T03:43:20.253Z,0
2019-01-22T03:44:30.266Z,0
2019-01-22T03:45:40.262Z,0
2019-01-22T03:46:50.275Z,0
2019-01-22T03:48:00.930Z,0
2019-01-22T03:49:11.827Z,0
2019-01-22T03:50:22.196Z,0
2019-01-22T03:51:32.427Z,0
2019-01-22T03:52:42.494Z,0
2019-01-22T03:53:58.514Z,0
2019-01-22T03:55:08.504Z,0
2019-01-22T03:56:18.505Z,0
2019-01-22T03:57:28.511Z,0
2019-01-22T03:58:38.617Z,0
2019-01-22T03:59:48.362Z,0
2019-01-22T04:00:58.373Z,0
2019-01-22T04:02:08.373Z,0
2019-01-22T04:03:18.372Z,0
2019-01-22T04:04:28.447Z,0
2019-01-22T04:05:38.438Z,0
2019-01-22T04:06:48.434Z,0
2019-01-22T04:07:58.432Z,0
2019-01-22T04:09:08.431Z,0
2019-01-22T04:10:18.474Z,0
2019-01-22T04:11:28.473Z,0
2019-01-22T04:12:38.490Z,0
2019-01-22T04:13:48.479Z,0
2019-01-22T04:14:58.479Z,0
2019-01-22T04:16:08.581Z,0
2019-01-22T04:17:18.568Z,0
2019-01-22T04:18:28.570Z,0
2019-01-22T04:19:38.565Z,0
2019-01-22T04:20:48.565Z,0
2019-01-22T04:21:58.363Z,0
2019-01-22T04:23:09.009Z,0
2019-01-22T04:24:19.913Z,0
2019-01-22T04:25:30.390Z,0
2019-01-22T04:26:40.803Z,0
2019-01-22T04:27:50.919Z,0
2019-01-22T04:29:00.920Z,0
2019-01-22T04:30:10.920Z,0
2019-01-22T04:31:20.944Z,0
2019-01-22T04:32:30.957Z,0
2019-01-22T04:33:41.060Z,0
2019-01-22T04:34:51.049Z,0
2019-01-22T04:36:01.042Z,0
2019-01-22T04:37:11.049Z,0
2019-01-22T04:38:21.057Z,0
2019-01-22T04:39:31.159Z,0
2019-01-22T04:40:41.168Z,0
2019-01-22T04:41:51.170Z,0
2019-01-22T04:43:01.159Z,0
2019-01-22T04:44:11.157Z,0
2019-01-22T04:45:22.939Z,0
2019-01-22T04:46:32.946Z,0
2019-01-22T04:47:42.710Z,0
2019-01-22T04:48:52.760Z,0
2019-01-22T04:50:02.758Z,0
2019-01-22T04:51:12.868Z,0
2019-01-22T04:52:22.863Z,0
2019-01-22T04:53:32.858Z,0
2019-01-22T04:54:42.538Z,0
2019-01-22T04:55:52.537Z,0
2019-01-22T04:57:02.607Z,0
2019-01-22T04:58:12.611Z,0
2019-01-22T04:59:23.594Z,0
2019-01-22T05:00:34.667Z,0
2019-01-22T05:01:45.102Z,0
2019-01-22T05:02:55.306Z,0
2019-01-22T05:04:05.315Z,0
2019-01-22T05:05:15.318Z,0
2019-01-22T05:06:25.319Z,0
2019-01-22T05:07:35.328Z,0
2019-01-22T05:08:45.423Z,0
2019-01-22T05:09:55.415Z,0
2019-01-22T05:11:05.451Z,0
2019-01-22T05:12:15.460Z,0
2019-01-22T05:13:25.462Z,0
2019-01-22T05:14:35.310Z,0
2019-01-22T05:15:45.316Z,0
2019-01-22T05:16:55.313Z,0
2019-01-22T05:18:05.314Z,0
2019-01-22T05:19:15.314Z,0
2019-01-22T05:20:25.368Z,0
2019-01-22T05:21:35.376Z,0
2019-01-22T05:22:45.385Z,0
2019-01-22T05:23:55.387Z,0
2019-01-22T05:25:05.403Z,0
2019-01-22T05:26:15.443Z,0
2019-01-22T05:27:25.454Z,0
2019-01-22T05:28:35.456Z,0
2019-01-22T05:29:45.477Z,0
2019-01-22T05:30:55.496Z,0
2019-01-22T05:32:05.595Z,0
2019-01-22T05:33:15.676Z,0
2019-01-22T05:34:25.690Z,0
2019-01-22T05:35:36.338Z,0
2019-01-22T05:36:47.033Z,0
2019-01-22T05:37:57.846Z,0
2019-01-22T05:39:08.161Z,0
2019-01-22T05:40:18.386Z,0
2019-01-22T05:41:28.399Z,0
2019-01-22T05:42:38.397Z,0
2019-01-22T05:43:48.443Z,0
2019-01-22T05:44:58.442Z,0
2019-01-22T05:46:08.438Z,0
2019-01-22T05:47:18.454Z,0
2019-01-22T05:48:28.483Z,0
2019-01-22T05:49:38.534Z,0
2019-01-22T05:50:48.537Z,0
2019-01-22T05:51:58.524Z,0
2019-01-22T05:53:08.504Z,0
2019-01-22T05:54:24.941Z,0
2019-01-22T05:55:35.259Z,0
2019-01-22T05:56:45.241Z,0
2019-01-22T05:57:55.232Z,0
2019-01-22T05:59:05.213Z,0
2019-01-22T06:00:15.197Z,0
2019-01-22T06:01:25.179Z,0
2019-01-22T06:02:35.161Z,0
2019-01-22T06:03:45.140Z,0
2019-01-22T06:04:55.120Z,0
2019-01-22T06:06:05.095Z,0
2019-01-22T06:07:15.186Z,0
2019-01-22T06:08:25.167Z,0
2019-01-22T06:09:35.157Z,0
2019-01-22T06:10:45.134Z,0
2019-01-22T06:11:55.120Z,0
2019-01-22T06:13:05.205Z,0
2019-01-22T06:14:15.187Z,0
2019-01-22T06:15:25.167Z,0
2019-01-22T06:16:35.146Z,0
2019-01-22T06:17:45.129Z,0
2019-01-22T06:18:54.887Z,0
2019-01-22T06:20:05.075Z,0
2019-01-22T06:21:15.066Z,0
2019-01-22T06:22:25.067Z,0
2019-01-22T06:23:35.057Z,0
2019-01-22T06:24:45.103Z,0
2019-01-22T06:25:58.949Z,0
2019-01-22T06:27:08.932Z,0
2019-01-22T06:28:18.951Z,0
2019-01-22T06:29:28.939Z,0
2019-01-22T06:30:38.965Z,0
2019-01-22T06:31:48.949Z,0
2019-01-22T06:32:58.923Z,0
2019-01-22T06:34:08.902Z,0
2019-01-22T06:35:18.917Z,0
2019-01-22T06:36:29.009Z,0
2019-01-22T06:37:39.000Z,0
2019-01-22T06:38:48.982Z,0
2019-01-22T06:39:58.965Z,0
2019-01-22T06:41:08.943Z,0
2019-01-22T06:42:18.974Z,0
2019-01-22T06:43:28.955Z,0
2019-01-22T06:44:38.935Z,0
2019-01-22T06:45:48.933Z,0
2019-01-22T06:46:58.911Z,0
2019-01-22T06:48:08.943Z,0
2019-01-22T06:49:18.931Z,0
2019-01-22T06:50:28.911Z,0
2019-01-22T06:51:38.894Z,0
2019-01-22T06:52:48.872Z,0
2019-01-22T06:53:58.959Z,0
2019-01-22T06:55:08.961Z,0
2019-01-22T06:56:18.947Z,0
2019-01-22T06:57:28.928Z,0
2019-01-22T06:58:38.903Z,0
2019-01-22T06:59:48.942Z,0
2019-01-22T07:00:58.999Z,0
2019-01-22T07:02:08.984Z,0
2019-01-22T07:03:18.962Z,0
2019-01-22T07:04:28.943Z,0
2019-01-22T07:05:39.071Z,0
2019-01-22T07:06:49.052Z,0
2019-01-22T07:07:59.032Z,0
2019-01-22T07:09:10.309Z,0
2019-01-22T07:10:20.406Z,0
2019-01-22T07:11:30.309Z,0
2019-01-22T07:12:40.294Z,0
2019-01-22T07:13:50.282Z,0
2019-01-22T07:15:00.269Z,0
2019-01-22T07:16:10.255Z,0
2019-01-22T07:17:20.334Z,0
2019-01-22T07:18:30.311Z,0
2019-01-22T07:19:40.295Z,0
2019-01-22T07:20:50.287Z,0
2019-01-22T07:22:00.272Z,0
2019-01-22T07:23:10.373Z,0
2019-01-22T07:24:20.352Z,0
2019-01-22T07:25:30.331Z,0
2019-01-22T07:26:40.325Z,0
2019-01-22T07:27:50.318Z,0
2019-01-22T07:29:00.353Z,0
2019-01-22T07:30:10.010Z,0
2019-01-22T07:31:19.991Z,0
2019-01-22T07:32:29.973Z,0
2019-01-22T07:33:39.695Z,0
2019-01-22T07:34:49.773Z,0
2019-01-22T07:35:59.748Z,0
2019-01-22T07:37:09.723Z,0
2019-01-22T07:38:19.706Z,0
2019-01-22T07:39:29.684Z,0
2019-01-22T07:40:39.810Z,0
2019-01-22T07:41:49.786Z,0
2019-01-22T07:42:59.830Z,5
2019-01-22T07:44:09.817Z,5
2019-01-22T07:45:19.802Z,5
2019-01-22T07:46:29.930Z,5
2019-01-22T07:47:39.936Z,5
2019-01-22T07:48:49.910Z,5
2019-01-22T07:49:59.884Z,5
2019-01-22T07:51:09.860Z,5
2019-01-22T07:52:19.890Z,5
2019-01-22T07:53:29.873Z,10
2019-01-22T07:54:39.859Z,10
2019-01-22T07:55:49.834Z,10
2019-01-22T07:56:59.817Z,10
2019-01-22T07:58:09.894Z,10
2019-01-22T07:59:19.868Z,10
2019-01-22T08:00:29.845Z,10
2019-01-22T08:01:39.826Z,10
2019-01-22T08:02:49.802Z,10
2019-01-22T08:03:59.874Z,15
2019-01-22T08:05:09.848Z,15
2019-01-22T08:06:19.862Z,15
2019-01-22T08:07:29.837Z,15
2019-01-22T08:08:39.811Z,15
2019-01-22T08:09:49.958Z,15
2019-01-22T08:11:00.390Z,20
2019-01-22T08:12:10.457Z,20
2019-01-22T08:13:20.442Z,20
2019-01-22T08:14:30.447Z,20
2019-01-22T08:15:40.575Z,20
2019-01-22T08:16:50.677Z,25
2019-01-22T08:18:00.652Z,25
2019-01-22T08:19:10.657Z,25
2019-01-22T08:20:20.633Z,30
2019-01-22T08:21:30.709Z,30
2019-01-22T08:22:40.689Z,30
2019-01-22T08:23:50.663Z,30
2019-01-22T08:25:05.423Z,30
2019-01-22T08:26:15.400Z,35
2019-01-22T08:27:29.394Z,35
2019-01-22T08:28:39.659Z,35
2019-01-22T08:29:49.643Z,35
2019-01-22T08:30:59.366Z,35
2019-01-22T08:32:09.375Z,35
2019-01-22T08:33:19.405Z,40
2019-01-22T08:34:29.386Z,40
2019-01-22T08:35:39.367Z,45
2019-01-22T08:36:49.028Z,45
2019-01-22T08:37:59.007Z,50
2019-01-22T08:39:09.086Z,50
2019-01-22T08:40:19.065Z,50
2019-01-22T08:41:29.042Z,55
2019-01-22T08:42:39.019Z,55
2019-01-22T08:43:48.998Z,60
2019-01-22T08:44:59.127Z,60
2019-01-22T08:46:09.103Z,65
2019-01-22T08:47:19.091Z,65
2019-01-22T08:48:29.067Z,70
2019-01-22T08:49:39.046Z,70
2019-01-22T08:50:49.123Z,70
2019-01-22T08:51:58.856Z,70
2019-01-22T08:53:09.695Z,75
2019-01-22T08:54:19.700Z,75
2019-01-22T08:55:29.679Z,80
2019-01-22T08:56:39.659Z,80
2019-01-22T08:57:49.636Z,85
2019-01-22T08:58:59.621Z,85
2019-01-22T09:00:09.610Z,85
2019-01-22T09:01:19.610Z,85
2019-01-22T09:02:29.649Z,85
2019-01-22T09:03:39.629Z,85
2019-01-22T09:04:49.615Z,85
2019-01-22T09:05:59.591Z,85
2019-01-22T09:07:09.572Z,80
2019-01-22T09:08:19.646Z,85
2019-01-22T09:09:29.627Z,85
2019-01-22T09:10:39.605Z,85
2019-01-22T09:11:49.580Z,90
2019-01-22T09:12:59.561Z,90
2019-01-22T09:14:09.689Z,90
2019-01-22T09:15:19.664Z,90
2019-01-22T09:16:29.639Z,90
2019-01-22T09:17:39.622Z,90
2019-01-22T09:18:50.297Z,90
2019-01-22T09:20:00.283Z,90
2019-01-22T09:21:10.326Z,90
2019-01-22T09:22:20.302Z,90
2019-01-22T09:23:30.282Z,90
2019-01-22T09:24:40.261Z,95
2019-01-22T09:25:50.337Z,95
2019-01-22T09:27:00.332Z,95
2019-01-22T09:28:10.323Z,95
2019-01-22T09:29:20.301Z,95
2019-01-22T09:30:30.296Z,95
2019-01-22T09:31:40.325Z,95
2019-01-22T09:32:50.304Z,95
2019-01-22T09:34:00.285Z,95
2019-01-22T09:35:13.065Z,100
2019-01-22T09:36:23.046Z,100
2019-01-22T09:37:33.021Z,100
2019-01-22T09:38:42.998Z,100
2019-01-22T09:39:54.057Z,105
2019-01-22T09:41:04.046Z,105
2019-01-22T09:42:14.022Z,110
2019-01-22T09:43:24.052Z,110
2019-01-22T09:44:34.078Z,115
2019-01-22T09:45:44.059Z,115
2019-01-22T09:46:54.056Z,115
2019-01-22T09:48:04.036Z,115
2019-01-22T09:49:14.164Z,120
2019-01-22T09:50:24.149Z,120
2019-01-22T09:51:34.129Z,125
2019-01-22T09:52:43.857Z,125
2019-01-22T09:53:53.848Z,125
2019-01-22T09:55:03.873Z,125
2019-01-22T09:56:13.852Z,130
2019-01-22T09:57:23.830Z,130
2019-01-22T09:58:33.818Z,130
2019-01-22T09:59:43.803Z,130
2019-01-22T10:00:53.846Z,130
2019-01-22T10:02:03.824Z,130
2019-01-22T10:03:13.551Z,130
2019-01-22T10:04:23.532Z,130
2019-01-22T10:05:33.684Z,130
2019-01-22T10:06:43.667Z,130
2019-01-22T10:07:53.647Z,135
2019-01-22T10:09:03.627Z,135
2019-01-22T10:10:13.604Z,135
2019-01-22T10:11:23.584Z,140
2019-01-22T10:12:33.714Z,140
2019-01-22T10:13:50.405Z,140
2019-01-22T10:15:00.382Z,140
2019-01-22T10:16:10.360Z,140
2019-01-22T10:17:20.351Z,140
2019-01-22T10:18:30.482Z,140
2019-01-22T10:19:40.135Z,145
2019-01-22T10:20:50.113Z,145
2019-01-22T10:22:00.108Z,145
2019-01-22T10:23:10.089Z,145
2019-01-22T10:24:20.119Z,145
2019-01-22T10:25:36.536Z,150
2019-01-22T10:26:46.517Z,150
2019-01-22T10:27:56.497Z,155
2019-01-22T10:29:06.477Z,150
2019-01-22T10:30:16.454Z,150
2019-01-22T10:31:26.434Z,150
2019-01-22T10:32:36.456Z,155
2019-01-22T10:33:46.436Z,155
2019-01-22T10:34:56.452Z,155
2019-01-22T10:36:06.279Z,155
2019-01-22T10:37:16.267Z,155
2019-01-22T10:38:26.294Z,160
2019-01-22T10:39:36.019Z,160
2019-01-22T10:40:46.000Z,160
2019-01-22T10:41:56.080Z,165
2019-01-22T10:43:11.814Z,165
2019-01-22T10:44:21.788Z,170
2019-01-22T10:45:31.768Z,175
2019-01-22T10:46:41.753Z,180
2019-01-22T10:47:51.736Z,175
2019-01-22T10:49:01.719Z,170
2019-01-22T10:50:11.704Z,165
2019-01-22T10:51:21.698Z,165
2019-01-22T10:52:31.673Z,165
2019-01-22T10:53:41.752Z,160
2019-01-22T10:54:51.733Z,160
2019-01-22T10:56:01.718Z,155
2019-01-22T10:57:11.709Z,155
2019-01-22T10:58:21.687Z,150
2019-01-22T10:59:31.911Z,150
2019-01-22T11:00:41.889Z,150
2019-01-22T11:01:51.876Z,145
2019-01-22T11:03:01.853Z,145
2019-01-22T11:04:11.830Z,145
2019-01-22T11:05:21.916Z,145
2019-01-22T11:06:31.646Z,145
2019-01-22T11:07:41.660Z,150
2019-01-22T11:08:51.641Z,150
2019-01-22T11:10:01.619Z,150
2019-01-22T11:11:11.699Z,150
2019-01-22T11:12:21.676Z,150
2019-01-22T11:13:31.655Z,155
2019-01-22T11:14:41.645Z,155
2019-01-22T11:15:51.625Z,155
2019-01-22T11:17:01.706Z,155
2019-01-22T11:18:11.692Z,155
2019-01-22T11:19:21.675Z,150
2019-01-22T11:20:31.660Z,150
2019-01-22T11:21:41.646Z,155
2019-01-22T11:22:51.632Z,155
2019-01-22T11:24:01.629Z,160
2019-01-22T11:25:11.606Z,160
2019-01-22T11:26:21.587Z,160
2019-01-22T11:27:31.573Z,160
2019-01-22T11:28:41.555Z,165
2019-01-22T11:29:51.537Z,165
2019-01-22T11:31:01.528Z,165
2019-01-22T11:32:11.510Z,165
2019-01-22T11:33:21.495Z,165
2019-01-22T11:34:31.474Z,165
2019-01-22T11:35:41.450Z,160
2019-01-22T11:36:51.427Z,165
2019-01-22T11:38:01.410Z,165
2019-01-22T11:39:11.387Z,160
2019-01-22T11:40:21.364Z,165
2019-01-22T11:41:31.349Z,170
2019-01-22T11:42:41.332Z,180
2019-01-22T11:43:50.985Z,180
2019-01-22T11:45:00.982Z,185
2019-01-22T11:46:10.968Z,185
2019-01-22T11:47:20.955Z,185
2019-01-22T11:48:30.931Z,185
2019-01-22T11:49:40.914Z,185
2019-01-22T11:50:50.897Z,190
2019-01-22T11:52:00.927Z,190
2019-01-22T11:53:10.910Z,195
2019-01-22T11:54:20.891Z,195
2019-01-22T11:55:30.870Z,195
2019-01-22T11:56:40.844Z,190
2019-01-22T11:57:51.023Z,180
2019-01-22T11:59:01.003Z,180
2019-01-22T12:00:10.985Z,180
2019-01-22T12:01:20.973Z,180
2019-01-22T12:02:36.908Z,180
2019-01-22T12:03:46.941Z,175
2019-01-22T12:04:56.927Z,175
2019-01-22T12:06:06.916Z,175
2019-01-22T12:07:16.906Z,175
2019-01-22T12:08:26.884Z,170
2019-01-22T12:09:36.918Z,165
2019-01-22T12:10:46.906Z,160
2019-01-22T12:11:56.892Z,160
2019-01-22T12:13:06.883Z,160
2019-01-22T12:14:16.864Z,155
2019-01-22T12:15:27.664Z,155
2019-01-22T12:16:37.731Z,155
2019-01-22T12:17:47.720Z,155
2019-01-22T12:18:57.713Z,155
2019-01-22T12:20:10.952Z,155
2019-01-22T12:21:21.083Z,155
2019-01-22T12:22:32.266Z,155
2019-01-22T12:23:42.279Z,155
2019-01-22T12:24:52.262Z,155
2019-01-22T12:26:06.633Z,155
2019-01-22T12:27:16.716Z,150
2019-01-22T12:28:26.695Z,150
2019-01-22T12:29:36.675Z,155
2019-01-22T12:30:46.663Z,160
2019-01-22T12:31:56.643Z,160
2019-01-22T12:33:06.678Z,160
2019-01-22T12:34:16.657Z,160
2019-01-22T12:35:26.645Z,160
2019-01-22T12:36:36.628Z,155
2019-01-22T12:37:46.620Z,155
2019-01-22T12:38:56.649Z,155
2019-01-22T12:40:06.631Z,155
2019-01-22T12:41:16.614Z,155
2019-01-22T12:42:26.596Z,155
2019-01-22T12:43:36.584Z,150
2019-01-22T12:44:46.665Z,145
2019-01-22T12:45:56.652Z,145
2019-01-22T12:47:06.635Z,145
2019-01-22T12:48:16.619Z,140
2019-01-22T12:49:26.614Z,140
2019-01-22T12:50:36.661Z,135
2019-01-22T12:51:46.647Z,135
2019-01-22T12:52:56.626Z,135
2019-01-22T12:54:06.609Z,130
2019-01-22T12:55:16.600Z,130
2019-01-22T12:56:26.639Z,125
2019-01-22T12:57:36.623Z,120
2019-01-22T12:58:46.602Z,115
2019-01-22T12:59:56.580Z,115
2019-01-22T13:01:06.070Z,110
2019-01-22T13:02:16.104Z,110
2019-01-22T13:03:26.091Z,105
2019-01-22T13:04:36.077Z,105
2019-01-22T13:05:46.057Z,100
2019-01-22T13:06:56.041Z,95
2019-01-22T13:08:06.123Z,95
2019-01-22T13:09:16.101Z,95
2019-01-22T13:10:26.087Z,95
2019-01-22T13:11:36.071Z,90
2019-01-22T13:12:46.081Z,90
2019-01-22T13:13:55.916Z,85
2019-01-22T13:15:05.897Z,85
2019-01-22T13:16:15.877Z,85
2019-01-22T13:17:25.858Z,85
2019-01-22T13:18:35.845Z,85
2019-01-22T13:19:45.926Z,85
2019-01-22T13:20:55.904Z,85
2019-01-22T13:22:05.885Z,80
2019-01-22T13:23:15.866Z,75
2019-01-22T13:24:26.450Z,75
2019-01-22T13:25:36.529Z,75
2019-01-22T13:26:46.511Z,75
2019-01-22T13:27:56.520Z,70
2019-01-22T13:29:06.508Z,70
2019-01-22T13:30:16.492Z,65
2019-01-22T13:31:26.577Z,65
2019-01-22T13:32:36.558Z,60
2019-01-22T13:33:46.538Z,60
2019-01-22T13:34:56.515Z,60
2019-01-22T13:36:06.521Z,55
2019-01-22T13:37:16.658Z,55
2019-01-22T13:38:26.663Z,55
2019-01-22T13:39:36.643Z,55
2019-01-22T13:40:46.622Z,55
2019-01-22T13:41:56.601Z,50
2019-01-22T13:43:06.632Z,50
2019-01-22T13:44:16.623Z,50
2019-01-22T13:45:26.627Z,50
2019-01-22T13:46:36.607Z,45
2019-01-22T13:47:46.584Z,45
2019-01-22T13:48:56.673Z,45
2019-01-22T13:50:06.650Z,45
2019-01-22T13:51:16.629Z,40
2019-01-22T13:52:26.619Z,40
2019-01-22T13:53:36.608Z,40
2019-01-22T13:54:46.687Z,40
2019-01-22T13:55:56.670Z,35
2019-01-22T13:57:06.650Z,35
2019-01-22T13:58:17.760Z,35
2019-01-22T13:59:27.744Z,35
2019-01-22T14:00:37.795Z,35
2019-01-22T14:01:47.826Z,35
2019-01-22T14:02:57.823Z,35
2019-01-22T14:04:09.457Z,30
2019-01-22T14:05:19.433Z,30
2019-01-22T14:06:29.512Z,30
2019-01-22T14:07:39.487Z,30
2019-01-22T14:08:49.469Z,30
2019-01-22T14:09:59.447Z,30
2019-01-22T14:11:09.430Z,30
2019-01-22T14:12:19.458Z,25
2019-01-22T14:13:29.182Z,25
2019-01-22T14:14:39.158Z,25
2019-01-22T14:15:49.139Z,25
2019-01-22T14:16:59.130Z,25
2019-01-22T14:18:09.170Z,25
2019-01-22T14:19:19.933Z,25
2019-01-22T14:20:29.913Z,25
2019-01-22T14:21:39.910Z,20
2019-01-22T14:22:49.891Z,20
2019-01-22T14:23:59.916Z,20
2019-01-22T14:25:09.891Z,20
2019-01-22T14:26:25.468Z,20
2019-01-22T14:27:35.567Z,20
2019-01-22T14:28:45.554Z,20
2019-01-22T14:29:55.632Z,20
2019-01-22T14:31:05.609Z,20
2019-01-22T14:32:15.589Z,15
2019-01-22T14:33:25.579Z,15
2019-01-22T14:34:35.557Z,15
2019-01-22T14:35:45.601Z,15
2019-01-22T14:36:55.582Z,15
2019-01-22T14:38:05.576Z,15
2019-01-22T14:39:15.573Z,10
2019-01-22T14:40:25.551Z,10
2019-01-22T14:41:35.583Z,10
2019-01-22T14:42:45.581Z,10
2019-01-22T14:43:55.560Z,10
2019-01-22T14:45:05.540Z,10
2019-01-22T14:46:15.529Z,10
2019-01-22T14:47:25.612Z,10
2019-01-22T14:48:35.592Z,10
2019-01-22T14:49:45.578Z,10
2019-01-22T14:50:55.553Z,5
2019-01-22T14:52:05.545Z,5
2019-01-22T14:53:15.534Z,5
2019-01-22T14:54:25.516Z,5
2019-01-22T14:55:35.240Z,5
2019-01-22T14:56:45.220Z,5
2019-01-22T14:57:55.196Z,5
2019-01-22T14:59:05.274Z,5
2019-01-22T15:00:15.255Z,5
2019-01-22T15:01:25.230Z,5
2019-01-22T15:02:35.205Z,5
2019-01-22T15:03:50.726Z,5
2019-01-22T15:05:00.758Z,0
2019-01-22T15:06:10.731Z,0
2019-01-22T15:07:20.710Z,0
2019-01-22T15:08:30.688Z,0
2019-01-22T15:09:40.672Z,0
2019-01-22T15:10:50.751Z,0
2019-01-22T15:12:00.725Z,0
2019-01-22T15:13:10.698Z,0
2019-01-22T15:14:20.684Z,0
2019-01-22T15:15:30.662Z,0
2019-01-22T15:16:40.639Z,0
2019-01-22T15:17:50.629Z,0
2019-01-22T15:19:00.614Z,0
2019-01-22T15:20:10.881Z,0
2019-01-22T15:21:20.863Z,0
2019-01-22T15:22:30.898Z,0
2019-01-22T15:23:40.874Z,0
2019-01-22T15:24:50.851Z,0
2019-01-22T15:26:00.827Z,0
2019-01-22T15:27:10.845Z,0
2019-01-22T15:28:20.875Z,0
2019-01-22T15:29:30.852Z,0
2019-01-22T15:30:40.361Z,0
2019-01-22T15:31:50.338Z,0
2019-01-22T15:33:00.325Z,0
2019-01-22T15:34:10.407Z,0
2019-01-22T15:35:20.383Z,0
2019-01-22T15:36:30.370Z,0
2019-01-22T15:37:40.094Z,0
2019-01-22T15:38:50.071Z,0
2019-01-22T15:40:05.740Z,0
2019-01-22T15:41:15.725Z,0
2019-01-22T15:42:25.703Z,0
2019-01-22T15:43:35.685Z,0
2019-01-22T15:44:45.672Z,0
2019-01-22T15:45:55.796Z,0
2019-01-22T15:47:05.772Z,0
2019-01-22T15:48:15.752Z,0
2019-01-22T15:49:25.730Z,0
2019-01-22T15:50:35.709Z,0
2019-01-22T15:51:45.736Z,0
2019-01-22T15:52:55.810Z,0
2019-01-22T15:54:05.786Z,0
2019-01-22T15:55:15.762Z,0
2019-01-22T15:56:25.740Z,0
2019-01-22T15:57:35.818Z,0
2019-01-22T15:58:45.799Z,0
2019-01-22T15:59:55.777Z,0
2019-01-22T16:01:05.755Z,0
2019-01-22T16:02:15.741Z,0
2019-01-22T16:03:26.199Z,0
2019-01-22T16:04:36.177Z,0
2019-01-22T16:05:46.150Z,0
2019-01-22T16:06:56.125Z,0
2019-01-22T16:08:06.585Z,0
2019-01-22T16:09:16.743Z,0
2019-01-22T16:10:26.724Z,0
2019-01-22T16:11:36.697Z,0
2019-01-22T16:12:46.672Z,0
2019-01-22T16:13:57.675Z,0
2019-01-22T16:15:08.182Z,0
2019-01-22T16:16:18.162Z,0
2019-01-22T16:17:28.139Z,0
2019-01-22T16:18:38.126Z,0
2019-01-22T16:19:48.103Z,0
2019-01-22T16:20:58.086Z,0
2019-01-22T16:22:07.810Z,0
2019-01-22T16:23:17.793Z,0
2019-01-22T16:24:27.772Z,0
2019-01-22T16:25:37.747Z,0
2019-01-22T16:26:53.320Z,0
2019-01-22T16:28:04.607Z,0
2019-01-22T16:29:14.587Z,0
2019-01-22T16:30:24.569Z,0
2019-01-22T16:31:34.548Z,0
2019-01-22T16:32:44.535Z,0
2019-01-22T16:33:54.513Z,0
2019-01-22T16:35:05.714Z,0
2019-01-22T16:36:15.767Z,0
2019-01-22T16:37:25.753Z,0
2019-01-22T16:38:35.730Z,0
2019-01-22T16:39:45.714Z,0
2019-01-22T16:40:55.699Z,0
2019-01-22T16:42:05.680Z,0
2019-01-22T16:43:15.658Z,0
2019-01-22T16:44:25.638Z,0
2019-01-22T16:45:35.637Z,0
2019-01-22T16:46:45.616Z,0
2019-01-22T16:47:55.604Z,0
2019-01-22T16:49:05.578Z,0
2019-01-22T16:50:15.658Z,0
2019-01-22T16:51:25.634Z,0
2019-01-22T16:52:35.615Z,0
2019-01-22T16:53:45.599Z,0